sensor_id;sensor_type;location;lat;lon;timestamp;P1;durP1;ratioP1;P2;durP2;ratioP2
57111;SDS011;42992;49.084;19.300;2022-09-13T00:00:28;5.68;;;3.80;;
57111;SDS011;42992;49.084;19.300;2022-09-13T00:02:54;4.78;;;3.47;;
57111;SDS011;42992;49.084;19.300;2022-09-13T00:05:25;9.20;;;3.60;;
57111;SDS011;42992;49.084;19.300;2022-09-13T00:07:58;5.82;;;3.25;;
57111;SDS011;42992;49.084;19.300;2022-09-13T00:10:24;7.15;;;3.63;;
57111;SDS011;42992;49.084;19.300;2022-09-13T00:12:51;10.68;;;3.78;;
57111;SDS011;42992;49.084;19.300;2022-09-13T00:15:26;6.03;;;3.90;;
57111;SDS011;42992;49.084;19.300;2022-09-13T00:18:06;6.93;;;3.63;;
57111;SDS011;42992;49.084;19.300;2022-09-13T00:20:42;5.50;;;3.58;;
57111;SDS011;42992;49.084;19.300;2022-09-13T00:23:08;5.68;;;3.80;;
57111;SDS011;42992;49.084;19.300;2022-09-13T00:25:37;7.15;;;3.67;;
57111;SDS011;42992;49.084;19.300;2022-09-13T00:28:08;9.20;;;3.80;;
57111;SDS011;42992;49.084;19.300;2022-09-13T00:30:34;8.48;;;3.70;;
57111;SDS011;42992;49.084;19.300;2022-09-13T00:33:06;9.23;;;4.50;;
57111;SDS011;42992;49.084;19.300;2022-09-13T00:35:35;8.52;;;4.72;;
57111;SDS011;42992;49.084;19.300;2022-09-13T00:38:05;9.23;;;3.80;;
57111;SDS011;42992;49.084;19.300;2022-09-13T00:40:37;8.50;;;4.10;;
57111;SDS011;42992;49.084;19.300;2022-09-13T00:43:02;8.10;;;4.75;;
57111;SDS011;42992;49.084;19.300;2022-09-13T00:45:53;8.10;;;4.93;;
57111;SDS011;42992;49.084;19.300;2022-09-13T00:48:27;8.10;;;4.82;;
57111;SDS011;42992;49.084;19.300;2022-09-13T00:51:19;8.43;;;4.70;;
57111;SDS011;42992;49.084;19.300;2022-09-13T00:54:06;8.90;;;4.38;;
57111;SDS011;42992;49.084;19.300;2022-09-13T00:56:49;6.95;;;3.80;;
57111;SDS011;42992;49.084;19.300;2022-09-13T00:59:32;8.07;;;3.92;;
57111;SDS011;42992;49.084;19.300;2022-09-13T01:02:00;5.70;;;3.45;;
57111;SDS011;42992;49.084;19.300;2022-09-13T01:04:30;6.65;;;4.20;;
57111;SDS011;42992;49.084;19.300;2022-09-13T01:07:10;5.85;;;3.95;;
57111;SDS011;42992;49.084;19.300;2022-09-13T01:09:55;7.63;;;4.40;;
57111;SDS011;42992;49.084;19.300;2022-09-13T01:12:43;4.88;;;3.47;;
57111;SDS011;42992;49.084;19.300;2022-09-13T01:15:12;6.93;;;3.58;;
57111;SDS011;42992;49.084;19.300;2022-09-13T01:17:41;5.75;;;3.63;;
57111;SDS011;42992;49.084;19.300;2022-09-13T01:20:17;7.78;;;3.53;;
57111;SDS011;42992;49.084;19.300;2022-09-13T01:26:16;5.43;;;3.42;;
57111;SDS011;42992;49.084;19.300;2022-09-13T01:28:52;5.80;;;3.65;;
57111;SDS011;42992;49.084;19.300;2022-09-13T01:31:37;10.18;;;3.65;;
57111;SDS011;42992;49.084;19.300;2022-09-13T01:48:14;7.53;;;4.93;;
57111;SDS011;42992;49.084;19.300;2022-09-13T01:50:52;6.80;;;4.00;;
57111;SDS011;42992;49.084;19.300;2022-09-13T01:53:39;5.90;;;4.07;;
57111;SDS011;42992;49.084;19.300;2022-09-13T01:56:42;8.57;;;4.63;;
57111;SDS011;42992;49.084;19.300;2022-09-13T01:59:00;7.93;;;4.65;;
57111;SDS011;42992;49.084;19.300;2022-09-13T02:01:31;6.53;;;4.40;;
57111;SDS011;42992;49.084;19.300;2022-09-13T02:06:50;11.18;;;4.90;;
57111;SDS011;42992;49.084;19.300;2022-09-13T02:09:21;5.80;;;4.25;;
57111;SDS011;42992;49.084;19.300;2022-09-13T02:11:51;8.70;;;4.70;;
57111;SDS011;42992;49.084;19.300;2022-09-13T02:14:35;9.93;;;4.72;;
57111;SDS011;42992;49.084;19.300;2022-09-13T02:17:20;7.18;;;4.95;;
57111;SDS011;42992;49.084;19.300;2022-09-13T02:20:24;8.25;;;4.85;;
57111;SDS011;42992;49.084;19.300;2022-09-13T02:22:53;8.05;;;4.93;;
57111;SDS011;42992;49.084;19.300;2022-09-13T02:25:22;11.57;;;4.97;;
57111;SDS011;42992;49.084;19.300;2022-09-13T02:27:59;7.93;;;4.90;;
57111;SDS011;42992;49.084;19.300;2022-09-13T02:30:38;9.30;;;5.10;;
57111;SDS011;42992;49.084;19.300;2022-09-13T02:33:17;6.53;;;4.72;;
57111;SDS011;42992;49.084;19.300;2022-09-13T02:35:50;8.63;;;4.57;;
57111;SDS011;42992;49.084;19.300;2022-09-13T02:38:28;8.88;;;5.22;;
57111;SDS011;42992;49.084;19.300;2022-09-13T02:40:57;10.50;;;5.60;;
57111;SDS011;42992;49.084;19.300;2022-09-13T02:43:30;8.25;;;5.10;;
57111;SDS011;42992;49.084;19.300;2022-09-13T02:51:23;7.93;;;5.03;;
57111;SDS011;42992;49.084;19.300;2022-09-13T02:59:29;11.63;;;5.90;;
57111;SDS011;42992;49.084;19.300;2022-09-13T03:02:02;8.38;;;5.90;;
57111;SDS011;42992;49.084;19.300;2022-09-13T03:04:32;11.82;;;5.75;;
57111;SDS011;42992;49.084;19.300;2022-09-13T03:07:01;8.88;;;5.90;;
57111;SDS011;42992;49.084;19.300;2022-09-13T03:09:30;12.43;;;6.15;;
57111;SDS011;42992;49.084;19.300;2022-09-13T03:12:08;11.77;;;6.45;;
57111;SDS011;42992;49.084;19.300;2022-09-13T03:20:43;20.73;;;7.82;;
57111;SDS011;42992;49.084;19.300;2022-09-13T03:26:09;11.63;;;6.70;;
57111;SDS011;42992;49.084;19.300;2022-09-13T03:28:53;16.92;;;7.75;;
57111;SDS011;42992;49.084;19.300;2022-09-13T03:37:43;13.65;;;6.57;;
57111;SDS011;42992;49.084;19.300;2022-09-13T03:40:21;11.55;;;6.80;;
57111;SDS011;42992;49.084;19.300;2022-09-13T03:45:24;11.15;;;7.10;;
57111;SDS011;42992;49.084;19.300;2022-09-13T03:47:51;14.73;;;6.65;;
57111;SDS011;42992;49.084;19.300;2022-09-13T03:50:19;7.25;;;5.82;;
57111;SDS011;42992;49.084;19.300;2022-09-13T03:53:03;10.73;;;5.65;;
57111;SDS011;42992;49.084;19.300;2022-09-13T03:55:30;7.90;;;5.50;;
57111;SDS011;42992;49.084;19.300;2022-09-13T03:57:58;9.90;;;5.15;;
57111;SDS011;42992;49.084;19.300;2022-09-13T04:00:25;7.53;;;5.20;;
57111;SDS011;42992;49.084;19.300;2022-09-13T04:02:51;9.63;;;5.43;;
57111;SDS011;42992;49.084;19.300;2022-09-13T04:05:18;13.23;;;6.47;;
57111;SDS011;42992;49.084;19.300;2022-09-13T04:07:47;13.48;;;6.90;;
57111;SDS011;42992;49.084;19.300;2022-09-13T04:10:20;9.73;;;6.90;;
57111;SDS011;42992;49.084;19.300;2022-09-13T04:13:11;10.07;;;6.50;;
57111;SDS011;42992;49.084;19.300;2022-09-13T04:16:05;9.70;;;6.13;;
57111;SDS011;42992;49.084;19.300;2022-09-13T04:18:33;10.85;;;6.75;;
57111;SDS011;42992;49.084;19.300;2022-09-13T04:21:00;11.57;;;6.50;;
57111;SDS011;42992;49.084;19.300;2022-09-13T04:23:29;9.70;;;6.15;;
57111;SDS011;42992;49.084;19.300;2022-09-13T04:26:03;10.77;;;6.35;;
57111;SDS011;42992;49.084;19.300;2022-09-13T04:33:28;11.93;;;5.95;;
57111;SDS011;42992;49.084;19.300;2022-09-13T04:35:59;12.52;;;6.07;;
57111;SDS011;42992;49.084;19.300;2022-09-13T04:38:45;9.88;;;6.38;;
57111;SDS011;42992;49.084;19.300;2022-09-13T04:41:17;11.25;;;6.53;;
57111;SDS011;42992;49.084;19.300;2022-09-13T04:43:49;12.43;;;7.88;;
57111;SDS011;42992;49.084;19.300;2022-09-13T04:46:28;11.80;;;6.75;;
57111;SDS011;42992;49.084;19.300;2022-09-13T04:49:31;14.38;;;9.00;;
57111;SDS011;42992;49.084;19.300;2022-09-13T04:52:07;14.18;;;9.18;;
57111;SDS011;42992;49.084;19.300;2022-09-13T04:54:33;19.15;;;12.02;;
57111;SDS011;42992;49.084;19.300;2022-09-13T04:57:03;18.63;;;11.38;;
57111;SDS011;42992;49.084;19.300;2022-09-13T04:59:30;15.90;;;9.35;;
57111;SDS011;42992;49.084;19.300;2022-09-13T05:01:57;13.15;;;8.73;;
57111;SDS011;42992;49.084;19.300;2022-09-13T05:04:24;19.40;;;7.90;;
57111;SDS011;42992;49.084;19.300;2022-09-13T05:06:50;12.10;;;7.95;;
57111;SDS011;42992;49.084;19.300;2022-09-13T05:09:18;11.77;;;7.82;;
57111;SDS011;42992;49.084;19.300;2022-09-13T05:11:46;8.95;;;6.65;;
57111;SDS011;42992;49.084;19.300;2022-09-13T05:14:14;9.10;;;6.45;;
57111;SDS011;42992;49.084;19.300;2022-09-13T05:16:45;11.60;;;5.10;;
57111;SDS011;42992;49.084;19.300;2022-09-13T05:19:11;8.80;;;5.18;;
57111;SDS011;42992;49.084;19.300;2022-09-13T05:21:37;8.60;;;5.47;;
57111;SDS011;42992;49.084;19.300;2022-09-13T05:24:04;9.15;;;6.07;;
57111;SDS011;42992;49.084;19.300;2022-09-13T05:26:29;8.57;;;6.05;;
57111;SDS011;42992;49.084;19.300;2022-09-13T05:28:57;8.63;;;5.85;;
57111;SDS011;42992;49.084;19.300;2022-09-13T05:31:30;10.63;;;6.20;;
57111;SDS011;42992;49.084;19.300;2022-09-13T05:34:10;10.82;;;7.60;;
57111;SDS011;42992;49.084;19.300;2022-09-13T05:36:37;10.85;;;6.70;;
57111;SDS011;42992;49.084;19.300;2022-09-13T05:39:16;8.25;;;6.18;;
57111;SDS011;42992;49.084;19.300;2022-09-13T05:41:42;10.40;;;6.78;;
57111;SDS011;42992;49.084;19.300;2022-09-13T05:44:09;9.23;;;6.00;;
57111;SDS011;42992;49.084;19.300;2022-09-13T05:46:34;12.10;;;6.57;;
57111;SDS011;42992;49.084;19.300;2022-09-13T05:49:00;9.95;;;6.68;;
57111;SDS011;42992;49.084;19.300;2022-09-13T05:51:27;8.52;;;5.97;;
57111;SDS011;42992;49.084;19.300;2022-09-13T05:53:56;13.75;;;5.55;;
57111;SDS011;42992;49.084;19.300;2022-09-13T05:56:27;9.68;;;5.68;;
57111;SDS011;42992;49.084;19.300;2022-09-13T05:59:02;10.80;;;6.47;;
57111;SDS011;42992;49.084;19.300;2022-09-13T06:01:58;10.60;;;6.53;;
57111;SDS011;42992;49.084;19.300;2022-09-13T06:04:28;9.85;;;7.00;;
57111;SDS011;42992;49.084;19.300;2022-09-13T06:06:55;9.32;;;5.80;;
57111;SDS011;42992;49.084;19.300;2022-09-13T06:09:23;10.65;;;6.45;;
57111;SDS011;42992;49.084;19.300;2022-09-13T06:11:55;13.48;;;6.22;;
57111;SDS011;42992;49.084;19.300;2022-09-13T06:14:21;21.05;;;7.35;;
57111;SDS011;42992;49.084;19.300;2022-09-13T06:16:49;12.48;;;6.40;;
57111;SDS011;42992;49.084;19.300;2022-09-13T06:22:36;11.35;;;6.32;;
57111;SDS011;42992;49.084;19.300;2022-09-13T06:25:03;7.35;;;5.13;;
57111;SDS011;42992;49.084;19.300;2022-09-13T06:27:31;9.27;;;5.18;;
57111;SDS011;42992;49.084;19.300;2022-09-13T06:29:58;9.65;;;5.88;;
57111;SDS011;42992;49.084;19.300;2022-09-13T06:32:26;10.15;;;5.93;;
57111;SDS011;42992;49.084;19.300;2022-09-13T06:34:53;9.43;;;5.68;;
57111;SDS011;42992;49.084;19.300;2022-09-13T06:37:19;8.52;;;4.75;;
57111;SDS011;42992;49.084;19.300;2022-09-13T06:39:47;9.05;;;5.30;;
57111;SDS011;42992;49.084;19.300;2022-09-13T06:42:25;9.15;;;5.63;;
57111;SDS011;42992;49.084;19.300;2022-09-13T06:45:00;10.52;;;7.90;;
57111;SDS011;42992;49.084;19.300;2022-09-13T06:47:30;6.63;;;5.30;;
57111;SDS011;42992;49.084;19.300;2022-09-13T06:49:58;8.25;;;6.25;;
57111;SDS011;42992;49.084;19.300;2022-09-13T06:52:27;9.38;;;5.88;;
57111;SDS011;42992;49.084;19.300;2022-09-13T06:54:57;8.30;;;5.75;;
57111;SDS011;42992;49.084;19.300;2022-09-13T06:57:23;9.32;;;6.05;;
57111;SDS011;42992;49.084;19.300;2022-09-13T06:59:52;10.18;;;5.88;;
57111;SDS011;42992;49.084;19.300;2022-09-13T07:02:17;8.48;;;6.50;;
57111;SDS011;42992;49.084;19.300;2022-09-13T07:04:44;8.93;;;6.10;;
57111;SDS011;42992;49.084;19.300;2022-09-13T07:07:10;8.13;;;5.45;;
57111;SDS011;42992;49.084;19.300;2022-09-13T07:09:37;7.65;;;4.93;;
57111;SDS011;42992;49.084;19.300;2022-09-13T07:12:11;6.60;;;5.20;;
57111;SDS011;42992;49.084;19.300;2022-09-13T07:14:38;8.23;;;5.47;;
57111;SDS011;42992;49.084;19.300;2022-09-13T07:17:06;11.57;;;5.65;;
57111;SDS011;42992;49.084;19.300;2022-09-13T07:19:36;10.18;;;5.78;;
57111;SDS011;42992;49.084;19.300;2022-09-13T07:22:02;7.63;;;5.65;;
57111;SDS011;42992;49.084;19.300;2022-09-13T07:24:51;9.20;;;5.97;;
57111;SDS011;42992;49.084;19.300;2022-09-13T07:38:42;11.57;;;9.13;;
57111;SDS011;42992;49.084;19.300;2022-09-13T07:41:14;11.77;;;8.55;;
57111;SDS011;42992;49.084;19.300;2022-09-13T07:43:43;10.93;;;8.27;;
57111;SDS011;42992;49.084;19.300;2022-09-13T08:26:09;8.13;;;6.05;;
57111;SDS011;42992;49.084;19.300;2022-09-13T09:01:02;8.68;;;5.93;;
57111;SDS011;42992;49.084;19.300;2022-09-13T09:07:26;7.90;;;5.75;;
57111;SDS011;42992;49.084;19.300;2022-09-13T09:16:19;8.85;;;5.78;;
57111;SDS011;42992;49.084;19.300;2022-09-13T09:22:03;10.43;;;5.93;;
57111;SDS011;42992;49.084;19.300;2022-09-13T09:24:43;9.85;;;5.97;;
57111;SDS011;42992;49.084;19.300;2022-09-13T09:30:40;11.18;;;5.55;;
57111;SDS011;42992;49.084;19.300;2022-09-13T09:42:26;10.70;;;5.28;;
57111;SDS011;42992;49.084;19.300;2022-09-13T09:45:03;9.32;;;5.90;;
57111;SDS011;42992;49.084;19.300;2022-09-13T09:47:32;9.05;;;4.57;;
57111;SDS011;42992;49.084;19.300;2022-09-13T09:50:12;6.50;;;4.50;;
57111;SDS011;42992;49.084;19.300;2022-09-13T09:55:51;5.63;;;4.45;;
57111;SDS011;42992;49.084;19.300;2022-09-13T09:57:59;6.68;;;3.80;;
57111;SDS011;42992;49.084;19.300;2022-09-13T10:00:26;7.38;;;3.90;;
57111;SDS011;42992;49.084;19.300;2022-09-13T10:02:54;9.02;;;4.00;;
57111;SDS011;42992;49.084;19.300;2022-09-13T10:05:21;6.75;;;3.63;;
57111;SDS011;42992;49.084;19.300;2022-09-13T10:07:52;5.38;;;3.80;;
57111;SDS011;42992;49.084;19.300;2022-09-13T10:10:19;6.25;;;4.00;;
57111;SDS011;42992;49.084;19.300;2022-09-13T10:12:47;6.70;;;3.90;;
57111;SDS011;42992;49.084;19.300;2022-09-13T10:15:17;5.60;;;3.13;;
57111;SDS011;42992;49.084;19.300;2022-09-13T10:17:45;7.55;;;3.28;;
57111;SDS011;42992;49.084;19.300;2022-09-13T10:20:24;6.90;;;3.80;;
57111;SDS011;42992;49.084;19.300;2022-09-13T10:25:35;4.60;;;2.70;;
57111;SDS011;42992;49.084;19.300;2022-09-13T10:28:01;9.13;;;3.72;;
57111;SDS011;42992;49.084;19.300;2022-09-13T10:30:41;5.30;;;2.97;;
57111;SDS011;42992;49.084;19.300;2022-09-13T10:33:22;6.65;;;3.10;;
57111;SDS011;42992;49.084;19.300;2022-09-13T10:35:48;6.05;;;2.50;;
57111;SDS011;42992;49.084;19.300;2022-09-13T10:38:23;4.85;;;2.60;;
57111;SDS011;42992;49.084;19.300;2022-09-13T10:40:50;6.97;;;2.80;;
57111;SDS011;42992;49.084;19.300;2022-09-13T10:43:15;7.15;;;2.35;;
57111;SDS011;42992;49.084;19.300;2022-09-13T10:45:44;3.40;;;2.03;;
57111;SDS011;42992;49.084;19.300;2022-09-13T10:48:13;5.32;;;2.05;;
57111;SDS011;42992;49.084;19.300;2022-09-13T10:50:39;4.47;;;2.03;;
57111;SDS011;42992;49.084;19.300;2022-09-13T10:53:07;3.72;;;1.30;;
57111;SDS011;42992;49.084;19.300;2022-09-13T10:55:53;1.90;;;1.10;;
57111;SDS011;42992;49.084;19.300;2022-09-13T10:58:19;2.85;;;1.30;;
57111;SDS011;42992;49.084;19.300;2022-09-13T11:08:32;6.97;;;1.50;;
57111;SDS011;42992;49.084;19.300;2022-09-13T11:11:09;2.03;;;1.00;;
57111;SDS011;42992;49.084;19.300;2022-09-13T11:37:12;2.60;;;1.10;;
57111;SDS011;42992;49.084;19.300;2022-09-13T11:39:51;1.50;;;0.80;;
57111;SDS011;42992;49.084;19.300;2022-09-13T11:55:27;2.65;;;0.95;;
57111;SDS011;42992;49.084;19.300;2022-09-13T11:57:57;2.13;;;1.02;;
57111;SDS011;42992;49.084;19.300;2022-09-13T12:03:36;4.25;;;1.20;;
57111;SDS011;42992;49.084;19.300;2022-09-13T12:06:08;2.42;;;0.95;;
57111;SDS011;42992;49.084;19.300;2022-09-13T12:08:36;2.13;;;1.10;;
57111;SDS011;42992;49.084;19.300;2022-09-13T12:11:05;3.55;;;1.13;;
57111;SDS011;42992;49.084;19.300;2022-09-13T12:16:12;4.07;;;1.10;;
57111;SDS011;42992;49.084;19.300;2022-09-13T12:18:44;2.70;;;1.10;;
57111;SDS011;42992;49.084;19.300;2022-09-13T12:21:11;2.30;;;1.17;;
57111;SDS011;42992;49.084;19.300;2022-09-13T12:28:35;2.92;;;1.40;;
57111;SDS011;42992;49.084;19.300;2022-09-13T12:31:03;2.33;;;1.27;;
57111;SDS011;42992;49.084;19.300;2022-09-13T12:33:29;2.95;;;1.38;;
57111;SDS011;42992;49.084;19.300;2022-09-13T12:36:08;2.65;;;1.45;;
57111;SDS011;42992;49.084;19.300;2022-09-13T12:57:06;2.88;;;1.60;;
57111;SDS011;42992;49.084;19.300;2022-09-13T13:02:36;3.42;;;1.70;;
57111;SDS011;42992;49.084;19.300;2022-09-13T13:07:54;3.10;;;1.75;;
57111;SDS011;42992;49.084;19.300;2022-09-13T13:10:33;3.42;;;1.80;;
57111;SDS011;42992;49.084;19.300;2022-09-13T13:13:09;5.93;;;1.92;;
57111;SDS011;42992;49.084;19.300;2022-09-13T13:18:19;3.38;;;2.00;;
57111;SDS011;42992;49.084;19.300;2022-09-13T13:25:54;3.60;;;1.88;;
57111;SDS011;42992;49.084;19.300;2022-09-13T13:31:04;5.13;;;2.28;;
57111;SDS011;42992;49.084;19.300;2022-09-13T13:33:29;3.78;;;2.03;;
57111;SDS011;42992;49.084;19.300;2022-09-13T13:36:22;3.55;;;2.10;;
57111;SDS011;42992;49.084;19.300;2022-09-13T13:38:50;3.15;;;1.88;;
57111;SDS011;42992;49.084;19.300;2022-09-13T13:46:42;2.83;;;1.70;;
57111;SDS011;42992;49.084;19.300;2022-09-13T13:57:30;4.22;;;1.88;;
57111;SDS011;42992;49.084;19.300;2022-09-13T14:00:16;3.28;;;1.50;;
57111;SDS011;42992;49.084;19.300;2022-09-13T14:02:45;3.33;;;1.85;;
57111;SDS011;42992;49.084;19.300;2022-09-13T14:05:33;5.40;;;2.13;;
57111;SDS011;42992;49.084;19.300;2022-09-13T14:20:36;4.03;;;2.33;;
57111;SDS011;42992;49.084;19.300;2022-09-13T14:23:17;3.17;;;1.85;;
57111;SDS011;42992;49.084;19.300;2022-09-13T14:25:43;3.08;;;1.83;;
57111;SDS011;42992;49.084;19.300;2022-09-13T14:28:11;4.35;;;1.98;;
57111;SDS011;42992;49.084;19.300;2022-09-13T14:30:38;5.07;;;2.00;;
57111;SDS011;42992;49.084;19.300;2022-09-13T14:33:03;3.25;;;2.00;;
57111;SDS011;42992;49.084;19.300;2022-09-13T14:40:45;3.83;;;1.77;;
57111;SDS011;42992;49.084;19.300;2022-09-13T14:43:17;4.05;;;1.65;;
57111;SDS011;42992;49.084;19.300;2022-09-13T14:45:43;4.03;;;1.77;;
57111;SDS011;42992;49.084;19.300;2022-09-13T14:48:23;3.30;;;1.95;;
57111;SDS011;42992;49.084;19.300;2022-09-13T14:50:53;4.53;;;1.90;;
57111;SDS011;42992;49.084;19.300;2022-09-13T14:53:20;4.85;;;2.10;;
57111;SDS011;42992;49.084;19.300;2022-09-13T14:55:53;4.43;;;2.03;;
57111;SDS011;42992;49.084;19.300;2022-09-13T14:58:24;5.47;;;2.05;;
57111;SDS011;42992;49.084;19.300;2022-09-13T15:00:51;4.82;;;2.10;;
57111;SDS011;42992;49.084;19.300;2022-09-13T15:03:19;4.00;;;2.22;;
57111;SDS011;42992;49.084;19.300;2022-09-13T15:05:52;2.80;;;1.70;;
57111;SDS011;42992;49.084;19.300;2022-09-13T15:11:01;3.05;;;1.90;;
57111;SDS011;42992;49.084;19.300;2022-09-13T15:13:30;3.95;;;2.10;;
57111;SDS011;42992;49.084;19.300;2022-09-13T15:15:56;3.53;;;2.00;;
57111;SDS011;42992;49.084;19.300;2022-09-13T15:18:23;4.80;;;2.03;;
57111;SDS011;42992;49.084;19.300;2022-09-13T15:20:58;2.97;;;1.80;;
57111;SDS011;42992;49.084;19.300;2022-09-13T15:28:27;4.30;;;1.95;;
57111;SDS011;42992;49.084;19.300;2022-09-13T15:30:53;3.67;;;2.20;;
57111;SDS011;42992;49.084;19.300;2022-09-13T15:33:23;5.53;;;2.05;;
57111;SDS011;42992;49.084;19.300;2022-09-13T15:35:49;3.38;;;2.05;;
57111;SDS011;42992;49.084;19.300;2022-09-13T15:38:20;5.13;;;2.17;;
57111;SDS011;42992;49.084;19.300;2022-09-13T15:40:56;3.38;;;1.95;;
57111;SDS011;42992;49.084;19.300;2022-09-13T15:43:22;3.63;;;1.95;;
57111;SDS011;42992;49.084;19.300;2022-09-13T15:45:47;4.28;;;2.10;;
57111;SDS011;42992;49.084;19.300;2022-09-13T15:48:16;4.45;;;1.90;;
57111;SDS011;42992;49.084;19.300;2022-09-13T15:50:46;5.95;;;1.92;;
57111;SDS011;42992;49.084;19.300;2022-09-13T15:53:27;3.90;;;2.45;;
57111;SDS011;42992;49.084;19.300;2022-09-13T15:55:52;4.85;;;2.58;;
57111;SDS011;42992;49.084;19.300;2022-09-13T15:58:18;4.95;;;3.03;;
57111;SDS011;42992;49.084;19.300;2022-09-13T16:00:44;4.53;;;2.80;;
57111;SDS011;42992;49.084;19.300;2022-09-13T16:03:09;7.60;;;2.65;;
57111;SDS011;42992;49.084;19.300;2022-09-13T16:05:34;3.38;;;2.10;;
57111;SDS011;42992;49.084;19.300;2022-09-13T16:08:00;7.68;;;3.58;;
57111;SDS011;42992;49.084;19.300;2022-09-13T16:10:26;6.47;;;4.20;;
57111;SDS011;42992;49.084;19.300;2022-09-13T16:12:52;3.95;;;2.58;;
57111;SDS011;42992;49.084;19.300;2022-09-13T16:15:18;7.57;;;3.33;;
57111;SDS011;42992;49.084;19.300;2022-09-13T16:17:44;6.88;;;2.83;;
57111;SDS011;42992;49.084;19.300;2022-09-13T16:20:13;6.20;;;2.63;;
57111;SDS011;42992;49.084;19.300;2022-09-13T16:22:38;4.32;;;2.30;;
57111;SDS011;42992;49.084;19.300;2022-09-13T16:25:03;4.82;;;2.35;;
57111;SDS011;42992;49.084;19.300;2022-09-13T16:27:29;7.50;;;2.95;;
57111;SDS011;42992;49.084;19.300;2022-09-13T16:29:54;4.43;;;2.42;;
57111;SDS011;42992;49.084;19.300;2022-09-13T16:32:20;8.13;;;3.03;;
57111;SDS011;42992;49.084;19.300;2022-09-13T16:34:45;5.63;;;2.80;;
57111;SDS011;42992;49.084;19.300;2022-09-13T16:37:15;4.97;;;2.40;;
57111;SDS011;42992;49.084;19.300;2022-09-13T16:39:41;4.03;;;2.58;;
57111;SDS011;42992;49.084;19.300;2022-09-13T16:42:06;4.38;;;3.05;;
57111;SDS011;42992;49.084;19.300;2022-09-13T16:44:32;5.38;;;3.10;;
57111;SDS011;42992;49.084;19.300;2022-09-13T16:46:57;9.10;;;3.70;;
57111;SDS011;42992;49.084;19.300;2022-09-13T16:49:23;4.45;;;2.72;;
57111;SDS011;42992;49.084;19.300;2022-09-13T16:51:49;4.78;;;2.78;;
57111;SDS011;42992;49.084;19.300;2022-09-13T16:54:14;4.85;;;2.72;;
57111;SDS011;42992;49.084;19.300;2022-09-13T16:56:39;6.18;;;3.20;;
57111;SDS011;42992;49.084;19.300;2022-09-13T16:59:05;10.45;;;5.15;;
57111;SDS011;42992;49.084;19.300;2022-09-13T17:01:30;12.57;;;3.08;;
57111;SDS011;42992;49.084;19.300;2022-09-13T17:03:56;5.35;;;2.75;;
57111;SDS011;42992;49.084;19.300;2022-09-13T17:06:22;6.18;;;2.85;;
57111;SDS011;42992;49.084;19.300;2022-09-13T17:08:51;4.38;;;2.95;;
57111;SDS011;42992;49.084;19.300;2022-09-13T17:11:18;5.07;;;2.92;;
57111;SDS011;42992;49.084;19.300;2022-09-13T17:13:43;4.45;;;2.90;;
57111;SDS011;42992;49.084;19.300;2022-09-13T17:18:44;5.83;;;3.60;;
57111;SDS011;42992;49.084;19.300;2022-09-13T17:21:11;4.95;;;3.22;;
57111;SDS011;42992;49.084;19.300;2022-09-13T17:23:36;9.27;;;3.05;;
57111;SDS011;42992;49.084;19.300;2022-09-13T17:26:01;6.95;;;3.50;;
57111;SDS011;42992;49.084;19.300;2022-09-13T17:28:26;5.43;;;3.30;;
57111;SDS011;42992;49.084;19.300;2022-09-13T17:30:52;5.85;;;2.88;;
57111;SDS011;42992;49.084;19.300;2022-09-13T17:33:17;5.53;;;3.00;;
57111;SDS011;42992;49.084;19.300;2022-09-13T17:35:44;3.85;;;2.60;;
57111;SDS011;42992;49.084;19.300;2022-09-13T17:38:11;5.18;;;3.30;;
57111;SDS011;42992;49.084;19.300;2022-09-13T17:40:39;8.00;;;3.75;;
57111;SDS011;42992;49.084;19.300;2022-09-13T17:43:05;6.78;;;3.70;;
57111;SDS011;42992;49.084;19.300;2022-09-13T17:45:33;5.20;;;3.35;;
57111;SDS011;42992;49.084;19.300;2022-09-13T17:48:00;8.20;;;4.57;;
57111;SDS011;42992;49.084;19.300;2022-09-13T17:50:25;6.60;;;4.10;;
57111;SDS011;42992;49.084;19.300;2022-09-13T17:52:51;7.30;;;3.40;;
57111;SDS011;42992;49.084;19.300;2022-09-13T17:55:17;5.32;;;3.10;;
57111;SDS011;42992;49.084;19.300;2022-09-13T17:57:42;9.98;;;3.28;;
57111;SDS011;42992;49.084;19.300;2022-09-13T18:00:08;6.00;;;3.40;;
57111;SDS011;42992;49.084;19.300;2022-09-13T18:02:36;7.88;;;3.22;;
57111;SDS011;42992;49.084;19.300;2022-09-13T18:05:01;7.00;;;4.55;;
57111;SDS011;42992;49.084;19.300;2022-09-13T18:07:27;5.97;;;3.92;;
57111;SDS011;42992;49.084;19.300;2022-09-13T18:12:38;6.55;;;2.53;;
57111;SDS011;42992;49.084;19.300;2022-09-13T18:18:35;8.35;;;4.32;;
57111;SDS011;42992;49.084;19.300;2022-09-13T18:21:02;6.03;;;3.80;;
57111;SDS011;42992;49.084;19.300;2022-09-13T18:23:31;8.77;;;3.22;;
57111;SDS011;42992;49.084;19.300;2022-09-13T18:26:16;14.38;;;6.38;;
57111;SDS011;42992;49.084;19.300;2022-09-13T18:28:42;8.05;;;5.65;;
57111;SDS011;42992;49.084;19.300;2022-09-13T18:31:20;7.72;;;4.10;;
57111;SDS011;42992;49.084;19.300;2022-09-13T18:34:08;5.65;;;3.90;;
57111;SDS011;42992;49.084;19.300;2022-09-13T18:53:05;7.78;;;3.35;;
57111;SDS011;42992;49.084;19.300;2022-09-13T18:55:33;6.18;;;4.35;;
57111;SDS011;42992;49.084;19.300;2022-09-13T18:57:59;5.68;;;4.00;;
57111;SDS011;42992;49.084;19.300;2022-09-13T19:00:24;5.43;;;3.65;;
57111;SDS011;42992;49.084;19.300;2022-09-13T19:06:17;8.45;;;4.38;;
57111;SDS011;42992;49.084;19.300;2022-09-13T19:09:04;7.28;;;5.68;;
57111;SDS011;42992;49.084;19.300;2022-09-13T19:11:34;7.40;;;4.88;;
57111;SDS011;42992;49.084;19.300;2022-09-13T19:41:20;13.10;;;7.65;;
57111;SDS011;42992;49.084;19.300;2022-09-13T19:49:48;10.20;;;6.93;;
57111;SDS011;42992;49.084;19.300;2022-09-13T21:05:15;5.38;;;3.90;;
57111;SDS011;42992;49.084;19.300;2022-09-13T21:07:42;7.10;;;4.32;;
57111;SDS011;42992;49.084;19.300;2022-09-13T21:26:56;7.35;;;4.10;;
57111;SDS011;42992;49.084;19.300;2022-09-13T21:30:07;6.80;;;3.95;;
57111;SDS011;42992;49.084;19.300;2022-09-13T21:39:35;4.40;;;3.30;;
57111;SDS011;42992;49.084;19.300;2022-09-13T21:42:03;6.05;;;3.45;;
57111;SDS011;42992;49.084;19.300;2022-09-13T22:20:42;6.78;;;4.45;;
57111;SDS011;42992;49.084;19.300;2022-09-13T22:23:08;6.38;;;3.95;;
57111;SDS011;42992;49.084;19.300;2022-09-13T22:25:33;6.95;;;4.30;;
57111;SDS011;42992;49.084;19.300;2022-09-13T22:33:09;7.00;;;3.90;;
57111;SDS011;42992;49.084;19.300;2022-09-13T22:35:34;7.72;;;4.35;;
57111;SDS011;42992;49.084;19.300;2022-09-13T22:38:00;5.90;;;4.05;;
57111;SDS011;42992;49.084;19.300;2022-09-13T22:40:26;5.93;;;4.03;;
57111;SDS011;42992;49.084;19.300;2022-09-13T22:42:51;6.78;;;4.20;;
57111;SDS011;42992;49.084;19.300;2022-09-13T22:45:17;7.90;;;4.05;;
57111;SDS011;42992;49.084;19.300;2022-09-13T22:47:42;6.28;;;4.38;;
57111;SDS011;42992;49.084;19.300;2022-09-13T22:50:07;8.25;;;4.32;;
57111;SDS011;42992;49.084;19.300;2022-09-13T22:52:33;7.03;;;4.32;;
57111;SDS011;42992;49.084;19.300;2022-09-13T22:54:58;7.15;;;4.13;;
57111;SDS011;42992;49.084;19.300;2022-09-13T22:57:24;5.90;;;3.70;;
57111;SDS011;42992;49.084;19.300;2022-09-13T23:02:24;8.45;;;3.80;;
57111;SDS011;42992;49.084;19.300;2022-09-13T23:04:50;5.38;;;4.15;;
57111;SDS011;42992;49.084;19.300;2022-09-13T23:07:15;6.70;;;3.80;;
57111;SDS011;42992;49.084;19.300;2022-09-13T23:45:51;7.28;;;4.70;;
57111;SDS011;42992;49.084;19.300;2022-09-13T23:51:11;7.47;;;4.30;;
57111;SDS011;42992;49.084;19.300;2022-09-13T23:53:37;8.50;;;4.05;;